sensor_id;sensor_type;location;lat;lon;timestamp;P1;durP1;ratioP1;P2;durP2;ratioP2
22794;SDS011;11564;50.920;11.612;2023-06-01T00:00:34;3.80;;;2.43;;
22794;SDS011;11564;50.920;11.612;2023-06-01T00:03:00;3.77;;;2.03;;
22794;SDS011;11564;50.920;11.612;2023-06-01T00:05:25;2.70;;;1.57;;
22794;SDS011;11564;50.920;11.612;2023-06-01T00:07:51;3.33;;;1.80;;
22794;SDS011;11564;50.920;11.612;2023-06-01T00:10:17;2.17;;;2.07;;
22794;SDS011;11564;50.920;11.612;2023-06-01T00:12:42;5.23;;;2.00;;
22794;SDS011;11564;50.920;11.612;2023-06-01T00:15:08;1.73;;;1.63;;
22794;SDS011;11564;50.920;11.612;2023-06-01T00:17:34;6.43;;;2.27;;
22794;SDS011;11564;50.920;11.612;2023-06-01T00:20:00;2.17;;;1.97;;
22794;SDS011;11564;50.920;11.612;2023-06-01T00:22:26;4.73;;;1.97;;
22794;SDS011;11564;50.920;11.612;2023-06-01T00:24:54;4.40;;;2.47;;
22794;SDS011;11564;50.920;11.612;2023-06-01T00:27:20;1.63;;;1.53;;
22794;SDS011;11564;50.920;11.612;2023-06-01T00:29:45;6.57;;;2.40;;
22794;SDS011;11564;50.920;11.612;2023-06-01T00:32:11;2.50;;;2.30;;
22794;SDS011;11564;50.920;11.612;2023-06-01T00:34:37;1.60;;;1.50;;
22794;SDS011;11564;50.920;11.612;2023-06-01T00:37:02;2.30;;;1.97;;
22794;SDS011;11564;50.920;11.612;2023-06-01T00:39:28;4.93;;;2.40;;
22794;SDS011;11564;50.920;11.612;2023-06-01T00:41:54;1.77;;;1.67;;
22794;SDS011;11564;50.920;11.612;2023-06-01T00:44:19;2.47;;;2.23;;
22794;SDS011;11564;50.920;11.612;2023-06-01T00:46:45;2.30;;;1.93;;
22794;SDS011;11564;50.920;11.612;2023-06-01T00:49:10;4.20;;;2.00;;
22794;SDS011;11564;50.920;11.612;2023-06-01T00:51:36;3.33;;;1.70;;
22794;SDS011;11564;50.920;11.612;2023-06-01T00:54:02;3.53;;;2.03;;
22794;SDS011;11564;50.920;11.612;2023-06-01T00:56:28;2.33;;;1.80;;
22794;SDS011;11564;50.920;11.612;2023-06-01T00:58:56;2.00;;;1.77;;
22794;SDS011;11564;50.920;11.612;2023-06-01T01:01:22;3.50;;;2.00;;
22794;SDS011;11564;50.920;11.612;2023-06-01T01:03:49;2.83;;;1.80;;
22794;SDS011;11564;50.920;11.612;2023-06-01T01:06:25;3.43;;;2.07;;
22794;SDS011;11564;50.920;11.612;2023-06-01T01:11:57;2.20;;;2.00;;
22794;SDS011;11564;50.920;11.612;2023-06-01T01:15:29;4.57;;;2.60;;
22794;SDS011;11564;50.920;11.612;2023-06-01T01:17:39;2.67;;;1.60;;
22794;SDS011;11564;50.920;11.612;2023-06-01T01:31:08;5.50;;;1.83;;
22794;SDS011;11564;50.920;11.612;2023-06-01T01:33:37;2.40;;;2.20;;
22794;SDS011;11564;50.920;11.612;2023-06-01T01:36:05;5.37;;;1.70;;
22794;SDS011;11564;50.920;11.612;2023-06-01T01:38:35;1.60;;;1.50;;
22794;SDS011;11564;50.920;11.612;2023-06-01T01:41:01;2.60;;;2.40;;
22794;SDS011;11564;50.920;11.612;2023-06-01T01:43:27;3.47;;;2.10;;
22794;SDS011;11564;50.920;11.612;2023-06-01T01:45:57;2.00;;;1.90;;
22794;SDS011;11564;50.920;11.612;2023-06-01T01:49:28;5.90;;;2.27;;
22794;SDS011;11564;50.920;11.612;2023-06-01T01:51:54;5.20;;;1.87;;
22794;SDS011;11564;50.920;11.612;2023-06-01T01:54:26;4.37;;;1.90;;
22794;SDS011;11564;50.920;11.612;2023-06-01T01:56:53;2.50;;;2.03;;
22794;SDS011;11564;50.920;11.612;2023-06-01T01:59:23;2.90;;;1.70;;
22794;SDS011;11564;50.920;11.612;2023-06-01T02:01:51;7.13;;;2.40;;
22794;SDS011;11564;50.920;11.612;2023-06-01T02:04:17;3.30;;;2.30;;
22794;SDS011;11564;50.920;11.612;2023-06-01T02:06:43;3.00;;;1.70;;
22794;SDS011;11564;50.920;11.612;2023-06-01T02:09:08;2.20;;;1.70;;
22794;SDS011;11564;50.920;11.612;2023-06-01T02:11:35;3.83;;;2.70;;
22794;SDS011;11564;50.920;11.612;2023-06-01T02:14:00;3.70;;;2.13;;
22794;SDS011;11564;50.920;11.612;2023-06-01T02:16:26;9.50;;;2.00;;
22794;SDS011;11564;50.920;11.612;2023-06-01T02:18:52;2.10;;;1.90;;
22794;SDS011;11564;50.920;11.612;2023-06-01T02:21:18;2.13;;;1.93;;
22794;SDS011;11564;50.920;11.612;2023-06-01T02:23:44;2.20;;;2.00;;
22794;SDS011;11564;50.920;11.612;2023-06-01T02:26:10;2.87;;;2.17;;
22794;SDS011;11564;50.920;11.612;2023-06-01T02:28:36;2.80;;;1.87;;
22794;SDS011;11564;50.920;11.612;2023-06-01T02:31:03;1.90;;;1.80;;
22794;SDS011;11564;50.920;11.612;2023-06-01T02:33:30;2.40;;;2.20;;
22794;SDS011;11564;50.920;11.612;2023-06-01T02:35:56;2.70;;;2.27;;
22794;SDS011;11564;50.920;11.612;2023-06-01T02:38:22;4.57;;;2.00;;
22794;SDS011;11564;50.920;11.612;2023-06-01T02:40:47;4.13;;;2.10;;
22794;SDS011;11564;50.920;11.612;2023-06-01T02:43:13;5.07;;;1.83;;
22794;SDS011;11564;50.920;11.612;2023-06-01T02:45:38;2.17;;;1.97;;
22794;SDS011;11564;50.920;11.612;2023-06-01T02:48:04;3.40;;;2.27;;
22794;SDS011;11564;50.920;11.612;2023-06-01T02:50:30;2.47;;;2.10;;
22794;SDS011;11564;50.920;11.612;2023-06-01T02:52:55;2.50;;;2.30;;
22794;SDS011;11564;50.920;11.612;2023-06-01T02:55:21;5.80;;;2.63;;
22794;SDS011;11564;50.920;11.612;2023-06-01T02:57:47;2.40;;;2.30;;
22794;SDS011;11564;50.920;11.612;2023-06-01T03:00:12;2.80;;;2.40;;
22794;SDS011;11564;50.920;11.612;2023-06-01T03:02:42;2.07;;;1.97;;
22794;SDS011;11564;50.920;11.612;2023-06-01T03:05:08;3.57;;;2.40;;
22794;SDS011;11564;50.920;11.612;2023-06-01T03:07:34;1.90;;;1.80;;
22794;SDS011;11564;50.920;11.612;2023-06-01T03:10:00;2.40;;;1.80;;
22794;SDS011;11564;50.920;11.612;2023-06-01T03:12:25;4.53;;;2.13;;
22794;SDS011;11564;50.920;11.612;2023-06-01T03:14:51;8.43;;;1.90;;
22794;SDS011;11564;50.920;11.612;2023-06-01T03:17:17;2.63;;;1.97;;
22794;SDS011;11564;50.920;11.612;2023-06-01T03:19:42;2.30;;;2.03;;
22794;SDS011;11564;50.920;11.612;2023-06-01T03:22:08;2.37;;;2.27;;
22794;SDS011;11564;50.920;11.612;2023-06-01T03:24:33;1.80;;;1.70;;
22794;SDS011;11564;50.920;11.612;2023-06-01T03:26:59;2.57;;;1.77;;
22794;SDS011;11564;50.920;11.612;2023-06-01T03:29:26;2.40;;;1.90;;
22794;SDS011;11564;50.920;11.612;2023-06-01T03:31:51;1.80;;;1.70;;
22794;SDS011;11564;50.920;11.612;2023-06-01T03:34:17;3.93;;;2.63;;
22794;SDS011;11564;50.920;11.612;2023-06-01T03:36:43;3.20;;;2.47;;
22794;SDS011;11564;50.920;11.612;2023-06-01T03:39:13;2.27;;;2.07;;
22794;SDS011;11564;50.920;11.612;2023-06-01T03:41:41;2.33;;;2.13;;
22794;SDS011;11564;50.920;11.612;2023-06-01T03:44:12;4.77;;;2.00;;
22794;SDS011;11564;50.920;11.612;2023-06-01T03:46:38;6.00;;;2.47;;
22794;SDS011;11564;50.920;11.612;2023-06-01T03:49:05;2.60;;;1.83;;
22794;SDS011;11564;50.920;11.612;2023-06-01T03:51:31;2.00;;;1.80;;
22794;SDS011;11564;50.920;11.612;2023-06-01T03:53:56;3.33;;;2.53;;
22794;SDS011;11564;50.920;11.612;2023-06-01T03:56:22;2.07;;;1.87;;
22794;SDS011;11564;50.920;11.612;2023-06-01T03:58:48;2.33;;;2.13;;
22794;SDS011;11564;50.920;11.612;2023-06-01T04:01:14;2.33;;;1.87;;
22794;SDS011;11564;50.920;11.612;2023-06-01T04:03:45;2.70;;;2.27;;
22794;SDS011;11564;50.920;11.612;2023-06-01T04:06:11;3.70;;;2.70;;
22794;SDS011;11564;50.920;11.612;2023-06-01T04:08:42;2.93;;;1.70;;
22794;SDS011;11564;50.920;11.612;2023-06-01T04:11:14;2.80;;;2.23;;
22794;SDS011;11564;50.920;11.612;2023-06-01T04:13:40;5.87;;;1.97;;
22794;SDS011;11564;50.920;11.612;2023-06-01T04:16:06;12.30;;;2.10;;
22794;SDS011;11564;50.920;11.612;2023-06-01T04:18:31;2.00;;;1.90;;
22794;SDS011;11564;50.920;11.612;2023-06-01T04:20:57;2.77;;;1.97;;
22794;SDS011;11564;50.920;11.612;2023-06-01T04:23:23;2.00;;;1.90;;
22794;SDS011;11564;50.920;11.612;2023-06-01T04:25:48;6.50;;;2.50;;
22794;SDS011;11564;50.920;11.612;2023-06-01T04:28:17;2.20;;;2.00;;
22794;SDS011;11564;50.920;11.612;2023-06-01T04:30:43;2.80;;;2.13;;
22794;SDS011;11564;50.920;11.612;2023-06-01T04:33:12;4.60;;;2.83;;
22794;SDS011;11564;50.920;11.612;2023-06-01T04:35:38;2.40;;;2.20;;
22794;SDS011;11564;50.920;11.612;2023-06-01T04:38:04;3.67;;;2.50;;
22794;SDS011;11564;50.920;11.612;2023-06-01T04:40:30;6.37;;;2.50;;
22794;SDS011;11564;50.920;11.612;2023-06-01T04:42:56;5.83;;;2.73;;
22794;SDS011;11564;50.920;11.612;2023-06-01T04:45:23;3.33;;;2.90;;
22794;SDS011;11564;50.920;11.612;2023-06-01T04:47:50;3.30;;;2.20;;
22794;SDS011;11564;50.920;11.612;2023-06-01T04:50:16;7.47;;;2.80;;
22794;SDS011;11564;50.920;11.612;2023-06-01T04:52:42;3.40;;;2.50;;
22794;SDS011;11564;50.920;11.612;2023-06-01T04:55:09;2.60;;;2.27;;
22794;SDS011;11564;50.920;11.612;2023-06-01T04:57:38;4.33;;;2.60;;
22794;SDS011;11564;50.920;11.612;2023-06-01T05:00:05;4.13;;;2.70;;
22794;SDS011;11564;50.920;11.612;2023-06-01T05:02:36;7.77;;;3.13;;
22794;SDS011;11564;50.920;11.612;2023-06-01T05:05:02;3.23;;;2.93;;
22794;SDS011;11564;50.920;11.612;2023-06-01T05:07:30;4.10;;;3.43;;
22794;SDS011;11564;50.920;11.612;2023-06-01T05:09:56;7.23;;;4.43;;
22794;SDS011;11564;50.920;11.612;2023-06-01T05:12:22;3.93;;;2.87;;
22794;SDS011;11564;50.920;11.612;2023-06-01T05:14:48;7.40;;;4.53;;
22794;SDS011;11564;50.920;11.612;2023-06-01T05:17:14;6.80;;;3.87;;
22794;SDS011;11564;50.920;11.612;2023-06-01T05:19:40;4.90;;;3.27;;
22794;SDS011;11564;50.920;11.612;2023-06-01T05:22:06;13.27;;;3.63;;
22794;SDS011;11564;50.920;11.612;2023-06-01T05:24:31;8.33;;;4.00;;
22794;SDS011;11564;50.920;11.612;2023-06-01T05:26:57;4.27;;;3.47;;
22794;SDS011;11564;50.920;11.612;2023-06-01T05:29:22;7.13;;;3.90;;
22794;SDS011;11564;50.920;11.612;2023-06-01T05:31:48;4.93;;;4.07;;
22794;SDS011;11564;50.920;11.612;2023-06-01T05:34:14;4.43;;;3.60;;
22794;SDS011;11564;50.920;11.612;2023-06-01T05:36:40;8.17;;;3.70;;
22794;SDS011;11564;50.920;11.612;2023-06-01T05:39:06;4.20;;;3.57;;
22794;SDS011;11564;50.920;11.612;2023-06-01T05:41:31;5.60;;;4.20;;
22794;SDS011;11564;50.920;11.612;2023-06-01T05:43:57;6.30;;;4.00;;
22794;SDS011;11564;50.920;11.612;2023-06-01T05:46:22;4.70;;;4.20;;
22794;SDS011;11564;50.920;11.612;2023-06-01T05:48:49;6.87;;;4.77;;
22794;SDS011;11564;50.920;11.612;2023-06-01T05:51:16;6.80;;;4.60;;
22794;SDS011;11564;50.920;11.612;2023-06-01T05:53:42;7.70;;;3.87;;
22794;SDS011;11564;50.920;11.612;2023-06-01T05:56:07;10.30;;;4.40;;
22794;SDS011;11564;50.920;11.612;2023-06-01T05:58:33;8.60;;;4.07;;
22794;SDS011;11564;50.920;11.612;2023-06-01T06:00:59;13.33;;;3.70;;
22794;SDS011;11564;50.920;11.612;2023-06-01T06:03:24;7.30;;;4.00;;
22794;SDS011;11564;50.920;11.612;2023-06-01T06:05:50;7.60;;;3.80;;
22794;SDS011;11564;50.920;11.612;2023-06-01T06:08:16;5.17;;;4.03;;
22794;SDS011;11564;50.920;11.612;2023-06-01T06:10:41;7.60;;;3.23;;
22794;SDS011;11564;50.920;11.612;2023-06-01T06:13:07;5.70;;;3.63;;
22794;SDS011;11564;50.920;11.612;2023-06-01T06:15:32;5.87;;;2.80;;
22794;SDS011;11564;50.920;11.612;2023-06-01T06:17:58;6.93;;;3.47;;
22794;SDS011;11564;50.920;11.612;2023-06-01T06:20:24;5.23;;;3.10;;
22794;SDS011;11564;50.920;11.612;2023-06-01T06:22:50;5.43;;;2.97;;
22794;SDS011;11564;50.920;11.612;2023-06-01T06:25:16;11.33;;;3.77;;
22794;SDS011;11564;50.920;11.612;2023-06-01T06:27:42;14.13;;;2.97;;
22794;SDS011;11564;50.920;11.612;2023-06-01T06:30:08;3.10;;;2.77;;
22794;SDS011;11564;50.920;11.612;2023-06-01T06:32:34;8.93;;;2.80;;
22794;SDS011;11564;50.920;11.612;2023-06-01T06:35:01;5.20;;;3.60;;
22794;SDS011;11564;50.920;11.612;2023-06-01T06:37:27;4.67;;;3.43;;
22794;SDS011;11564;50.920;11.612;2023-06-01T06:39:54;10.30;;;3.17;;
22794;SDS011;11564;50.920;11.612;2023-06-01T06:42:20;6.00;;;2.40;;
22794;SDS011;11564;50.920;11.612;2023-06-01T06:44:45;8.43;;;3.47;;
22794;SDS011;11564;50.920;11.612;2023-06-01T06:47:11;4.37;;;2.50;;
22794;SDS011;11564;50.920;11.612;2023-06-01T06:49:43;5.33;;;2.23;;
22794;SDS011;11564;50.920;11.612;2023-06-01T06:52:09;8.60;;;2.87;;
22794;SDS011;11564;50.920;11.612;2023-06-01T06:54:36;6.97;;;3.23;;
22794;SDS011;11564;50.920;11.612;2023-06-01T06:57:05;8.03;;;2.90;;
22794;SDS011;11564;50.920;11.612;2023-06-01T06:59:32;3.40;;;2.50;;
22794;SDS011;11564;50.920;11.612;2023-06-01T07:01:58;2.87;;;2.50;;
22794;SDS011;11564;50.920;11.612;2023-06-01T07:04:23;7.70;;;2.03;;
22794;SDS011;11564;50.920;11.612;2023-06-01T07:06:49;2.43;;;2.17;;
22794;SDS011;11564;50.920;11.612;2023-06-01T07:09:16;3.17;;;2.17;;
22794;SDS011;11564;50.920;11.612;2023-06-01T07:11:42;5.83;;;1.77;;
22794;SDS011;11564;50.920;11.612;2023-06-01T07:14:08;6.33;;;2.83;;
22794;SDS011;11564;50.920;11.612;2023-06-01T07:16:33;4.07;;;2.37;;
22794;SDS011;11564;50.920;11.612;2023-06-01T07:18:59;3.53;;;2.10;;
22794;SDS011;11564;50.920;11.612;2023-06-01T07:21:25;2.37;;;2.17;;
22794;SDS011;11564;50.920;11.612;2023-06-01T07:23:51;6.57;;;2.60;;
22794;SDS011;11564;50.920;11.612;2023-06-01T07:26:16;11.20;;;2.40;;
22794;SDS011;11564;50.920;11.612;2023-06-01T07:28:42;6.77;;;2.73;;
22794;SDS011;11564;50.920;11.612;2023-06-01T07:31:08;3.57;;;2.23;;
22794;SDS011;11564;50.920;11.612;2023-06-01T07:33:34;13.70;;;2.30;;
22794;SDS011;11564;50.920;11.612;2023-06-01T07:36:01;9.00;;;2.73;;
22794;SDS011;11564;50.920;11.612;2023-06-01T07:38:27;2.37;;;2.17;;
22794;SDS011;11564;50.920;11.612;2023-06-01T07:40:53;3.83;;;2.17;;
22794;SDS011;11564;50.920;11.612;2023-06-01T07:43:18;4.13;;;2.13;;
22794;SDS011;11564;50.920;11.612;2023-06-01T07:45:44;5.13;;;2.43;;
22794;SDS011;11564;50.920;11.612;2023-06-01T07:48:10;6.70;;;3.10;;
22794;SDS011;11564;50.920;11.612;2023-06-01T07:50:35;3.67;;;2.63;;
22794;SDS011;11564;50.920;11.612;2023-06-01T07:53:02;4.53;;;2.13;;
22794;SDS011;11564;50.920;11.612;2023-06-01T07:55:28;6.77;;;2.30;;
22794;SDS011;11564;50.920;11.612;2023-06-01T07:57:54;3.20;;;2.40;;
22794;SDS011;11564;50.920;11.612;2023-06-01T08:00:19;5.17;;;2.87;;
22794;SDS011;11564;50.920;11.612;2023-06-01T08:02:45;5.17;;;2.27;;
22794;SDS011;11564;50.920;11.612;2023-06-01T08:05:11;3.83;;;2.53;;
22794;SDS011;11564;50.920;11.612;2023-06-01T08:07:37;8.53;;;2.93;;
22794;SDS011;11564;50.920;11.612;2023-06-01T08:10:04;8.60;;;2.70;;
22794;SDS011;11564;50.920;11.612;2023-06-01T08:12:31;6.97;;;2.63;;
22794;SDS011;11564;50.920;11.612;2023-06-01T08:14:57;5.67;;;2.60;;
22794;SDS011;11564;50.920;11.612;2023-06-01T08:17:23;3.20;;;2.00;;
22794;SDS011;11564;50.920;11.612;2023-06-01T08:19:49;3.07;;;2.40;;
22794;SDS011;11564;50.920;11.612;2023-06-01T08:22:19;6.90;;;1.90;;
22794;SDS011;11564;50.920;11.612;2023-06-01T08:24:46;4.60;;;2.27;;
22794;SDS011;11564;50.920;11.612;2023-06-01T08:27:18;5.40;;;2.73;;
22794;SDS011;11564;50.920;11.612;2023-06-01T08:29:46;12.03;;;2.40;;
22794;SDS011;11564;50.920;11.612;2023-06-01T08:32:12;8.63;;;2.40;;
22794;SDS011;11564;50.920;11.612;2023-06-01T08:34:39;7.97;;;2.30;;
22794;SDS011;11564;50.920;11.612;2023-06-01T08:37:05;4.60;;;2.33;;
22794;SDS011;11564;50.920;11.612;2023-06-01T08:39:31;6.00;;;2.40;;
22794;SDS011;11564;50.920;11.612;2023-06-01T08:42:07;7.80;;;2.40;;
22794;SDS011;11564;50.920;11.612;2023-06-01T08:44:45;5.30;;;1.83;;
22794;SDS011;11564;50.920;11.612;2023-06-01T08:47:11;4.13;;;2.40;;
22794;SDS011;11564;50.920;11.612;2023-06-01T08:49:38;4.23;;;2.20;;
22794;SDS011;11564;50.920;11.612;2023-06-01T08:52:08;2.80;;;2.00;;
22794;SDS011;11564;50.920;11.612;2023-06-01T08:54:39;3.23;;;2.00;;
22794;SDS011;11564;50.920;11.612;2023-06-01T08:57:05;2.87;;;1.90;;
22794;SDS011;11564;50.920;11.612;2023-06-01T08:59:33;6.70;;;1.63;;
22794;SDS011;11564;50.920;11.612;2023-06-01T09:01:59;13.23;;;3.07;;
22794;SDS011;11564;50.920;11.612;2023-06-01T09:04:26;4.77;;;2.20;;
22794;SDS011;11564;50.920;11.612;2023-06-01T09:06:52;4.37;;;1.90;;
22794;SDS011;11564;50.920;11.612;2023-06-01T09:09:18;3.83;;;1.80;;
22794;SDS011;11564;50.920;11.612;2023-06-01T09:11:44;8.40;;;1.77;;
22794;SDS011;11564;50.920;11.612;2023-06-01T09:14:23;2.60;;;1.60;;
22794;SDS011;11564;50.920;11.612;2023-06-01T09:16:50;4.37;;;1.67;;
22794;SDS011;11564;50.920;11.612;2023-06-01T09:19:16;5.10;;;2.30;;
22794;SDS011;11564;50.920;11.612;2023-06-01T09:21:55;3.10;;;2.00;;
22794;SDS011;11564;50.920;11.612;2023-06-01T09:24:22;2.83;;;1.70;;
22794;SDS011;11564;50.920;11.612;2023-06-01T09:26:48;9.60;;;1.90;;
22794;SDS011;11564;50.920;11.612;2023-06-01T09:29:14;4.77;;;2.43;;
22794;SDS011;11564;50.920;11.612;2023-06-01T09:31:41;10.23;;;1.90;;
22794;SDS011;11564;50.920;11.612;2023-06-01T09:34:15;3.70;;;2.00;;
22794;SDS011;11564;50.920;11.612;2023-06-01T09:36:47;7.30;;;2.53;;
22794;SDS011;11564;50.920;11.612;2023-06-01T09:39:16;2.83;;;1.80;;
22794;SDS011;11564;50.920;11.612;2023-06-01T09:41:47;4.60;;;1.80;;
22794;SDS011;11564;50.920;11.612;2023-06-01T09:44:29;2.57;;;1.80;;
22794;SDS011;11564;50.920;11.612;2023-06-01T09:47:00;3.83;;;1.73;;
22794;SDS011;11564;50.920;11.612;2023-06-01T09:49:28;2.60;;;1.80;;
22794;SDS011;11564;50.920;11.612;2023-06-01T09:54:30;1.77;;;1.30;;
22794;SDS011;11564;50.920;11.612;2023-06-01T09:57:06;6.17;;;1.90;;
22794;SDS011;11564;50.920;11.612;2023-06-01T09:59:42;5.27;;;2.03;;
22794;SDS011;11564;50.920;11.612;2023-06-01T10:02:13;5.97;;;1.60;;
22794;SDS011;11564;50.920;11.612;2023-06-01T10:04:42;6.77;;;2.37;;
22794;SDS011;11564;50.920;11.612;2023-06-01T10:07:21;2.50;;;2.03;;
22794;SDS011;11564;50.920;11.612;2023-06-01T10:09:51;2.80;;;1.83;;
22794;SDS011;11564;50.920;11.612;2023-06-01T10:12:20;8.43;;;2.30;;
22794;SDS011;11564;50.920;11.612;2023-06-01T10:14:47;6.13;;;2.30;;
22794;SDS011;11564;50.920;11.612;2023-06-01T10:17:15;3.07;;;1.60;;
22794;SDS011;11564;50.920;11.612;2023-06-01T10:19:41;4.80;;;2.50;;
22794;SDS011;11564;50.920;11.612;2023-06-01T10:22:07;9.73;;;2.33;;
22794;SDS011;11564;50.920;11.612;2023-06-01T10:24:35;6.27;;;2.70;;
22794;SDS011;11564;50.920;11.612;2023-06-01T10:27:16;3.23;;;2.13;;
22794;SDS011;11564;50.920;11.612;2023-06-01T10:29:44;4.77;;;2.30;;
22794;SDS011;11564;50.920;11.612;2023-06-01T10:32:40;12.70;;;2.30;;
22794;SDS011;11564;50.920;11.612;2023-06-01T10:35:02;8.70;;;2.37;;
22794;SDS011;11564;50.920;11.612;2023-06-01T10:37:31;3.20;;;2.30;;
22794;SDS011;11564;50.920;11.612;2023-06-01T10:42:45;2.23;;;1.97;;
22794;SDS011;11564;50.920;11.612;2023-06-01T10:48:09;4.33;;;2.10;;
22794;SDS011;11564;50.920;11.612;2023-06-01T10:50:36;3.23;;;2.10;;
22794;SDS011;11564;50.920;11.612;2023-06-01T10:53:22;3.67;;;1.63;;
22794;SDS011;11564;50.920;11.612;2023-06-01T11:04:03;3.83;;;1.70;;
22794;SDS011;11564;50.920;11.612;2023-06-01T11:06:34;4.77;;;1.73;;
22794;SDS011;11564;50.920;11.612;2023-06-01T11:09:03;4.30;;;1.83;;
22794;SDS011;11564;50.920;11.612;2023-06-01T11:14:18;4.80;;;1.80;;
22794;SDS011;11564;50.920;11.612;2023-06-01T11:16:46;10.50;;;2.20;;
22794;SDS011;11564;50.920;11.612;2023-06-01T11:19:19;6.57;;;2.67;;
22794;SDS011;11564;50.920;11.612;2023-06-01T11:21:58;7.23;;;2.10;;
22794;SDS011;11564;50.920;11.612;2023-06-01T11:24:31;6.07;;;2.43;;
22794;SDS011;11564;50.920;11.612;2023-06-01T11:27:07;6.63;;;2.27;;
22794;SDS011;11564;50.920;11.612;2023-06-01T11:29:35;3.93;;;2.10;;
22794;SDS011;11564;50.920;11.612;2023-06-01T11:32:01;7.17;;;2.33;;
22794;SDS011;11564;50.920;11.612;2023-06-01T11:34:30;13.00;;;2.20;;
22794;SDS011;11564;50.920;11.612;2023-06-01T11:37:03;6.53;;;1.87;;
22794;SDS011;11564;50.920;11.612;2023-06-01T11:39:30;3.93;;;1.80;;
22794;SDS011;11564;50.920;11.612;2023-06-01T11:42:12;11.77;;;2.07;;
22794;SDS011;11564;50.920;11.612;2023-06-01T11:44:41;2.70;;;1.83;;
22794;SDS011;11564;50.920;11.612;2023-06-01T11:47:08;9.53;;;1.73;;
22794;SDS011;11564;50.920;11.612;2023-06-01T11:49:41;3.23;;;2.07;;
22794;SDS011;11564;50.920;11.612;2023-06-01T11:52:15;3.70;;;1.93;;
22794;SDS011;11564;50.920;11.612;2023-06-01T11:54:41;3.07;;;1.43;;
22794;SDS011;11564;50.920;11.612;2023-06-01T11:57:07;8.17;;;1.87;;
22794;SDS011;11564;50.920;11.612;2023-06-01T12:02:04;1.73;;;1.50;;
22794;SDS011;11564;50.920;11.612;2023-06-01T12:05:01;2.90;;;1.90;;
22794;SDS011;11564;50.920;11.612;2023-06-01T12:07:42;7.73;;;1.50;;
22794;SDS011;11564;50.920;11.612;2023-06-01T12:10:12;3.33;;;1.60;;
22794;SDS011;11564;50.920;11.612;2023-06-01T12:12:40;1.97;;;1.87;;
22794;SDS011;11564;50.920;11.612;2023-06-01T12:15:08;2.47;;;2.27;;
22794;SDS011;11564;50.920;11.612;2023-06-01T12:17:54;6.83;;;2.73;;
22794;SDS011;11564;50.920;11.612;2023-06-01T12:22:57;5.50;;;2.27;;
22794;SDS011;11564;50.920;11.612;2023-06-01T12:25:24;6.80;;;1.97;;
22794;SDS011;11564;50.920;11.612;2023-06-01T12:28:00;1.93;;;1.73;;
22794;SDS011;11564;50.920;11.612;2023-06-01T12:30:30;2.23;;;1.80;;
22794;SDS011;11564;50.920;11.612;2023-06-01T12:32:56;3.20;;;2.00;;
22794;SDS011;11564;50.920;11.612;2023-06-01T12:35:21;2.43;;;2.03;;
22794;SDS011;11564;50.920;11.612;2023-06-01T12:40:29;2.63;;;2.43;;
22794;SDS011;11564;50.920;11.612;2023-06-01T12:42:54;3.37;;;2.57;;
22794;SDS011;11564;50.920;11.612;2023-06-01T12:45:20;3.20;;;2.30;;
22794;SDS011;11564;50.920;11.612;2023-06-01T12:47:45;3.57;;;2.53;;
22794;SDS011;11564;50.920;11.612;2023-06-01T12:50:11;3.60;;;2.77;;
22794;SDS011;11564;50.920;11.612;2023-06-01T12:52:38;2.80;;;2.00;;
22794;SDS011;11564;50.920;11.612;2023-06-01T12:55:05;4.30;;;3.03;;
22794;SDS011;11564;50.920;11.612;2023-06-01T12:57:32;3.10;;;2.43;;
22794;SDS011;11564;50.920;11.612;2023-06-01T13:00:00;3.77;;;3.07;;
22794;SDS011;11564;50.920;11.612;2023-06-01T13:02:27;4.20;;;3.10;;
22794;SDS011;11564;50.920;11.612;2023-06-01T13:04:52;6.00;;;3.80;;
22794;SDS011;11564;50.920;11.612;2023-06-01T13:07:18;8.30;;;4.07;;
22794;SDS011;11564;50.920;11.612;2023-06-01T13:09:47;3.47;;;3.13;;
22794;SDS011;11564;50.920;11.612;2023-06-01T13:12:13;4.23;;;3.90;;
22794;SDS011;11564;50.920;11.612;2023-06-01T13:14:38;5.60;;;4.43;;
22794;SDS011;11564;50.920;11.612;2023-06-01T13:17:04;7.33;;;4.40;;
22794;SDS011;11564;50.920;11.612;2023-06-01T13:19:30;5.67;;;5.17;;
22794;SDS011;11564;50.920;11.612;2023-06-01T13:21:56;5.70;;;5.10;;
22794;SDS011;11564;50.920;11.612;2023-06-01T13:24:21;12.37;;;4.60;;
22794;SDS011;11564;50.920;11.612;2023-06-01T13:26:47;6.97;;;5.57;;
22794;SDS011;11564;50.920;11.612;2023-06-01T13:29:13;3.80;;;3.50;;
22794;SDS011;11564;50.920;11.612;2023-06-01T13:31:38;5.30;;;4.40;;
22794;SDS011;11564;50.920;11.612;2023-06-01T13:34:04;9.93;;;3.97;;
22794;SDS011;11564;50.920;11.612;2023-06-01T13:36:30;5.17;;;4.67;;
22794;SDS011;11564;50.920;11.612;2023-06-01T13:38:56;4.97;;;3.80;;
22794;SDS011;11564;50.920;11.612;2023-06-01T13:41:22;4.50;;;4.10;;
22794;SDS011;11564;50.920;11.612;2023-06-01T13:43:48;5.67;;;4.20;;
22794;SDS011;11564;50.920;11.612;2023-06-01T13:46:14;3.93;;;3.40;;
22794;SDS011;11564;50.920;11.612;2023-06-01T13:48:40;8.30;;;4.50;;
22794;SDS011;11564;50.920;11.612;2023-06-01T13:51:05;7.00;;;3.93;;
22794;SDS011;11564;50.920;11.612;2023-06-01T13:53:31;4.37;;;3.97;;
22794;SDS011;11564;50.920;11.612;2023-06-01T13:55:58;3.47;;;3.27;;
22794;SDS011;11564;50.920;11.612;2023-06-01T13:58:24;3.60;;;3.20;;
22794;SDS011;11564;50.920;11.612;2023-06-01T14:00:50;3.40;;;3.10;;
22794;SDS011;11564;50.920;11.612;2023-06-01T14:03:16;7.07;;;3.57;;
22794;SDS011;11564;50.920;11.612;2023-06-01T14:05:41;3.83;;;3.53;;
22794;SDS011;11564;50.920;11.612;2023-06-01T14:08:07;3.83;;;3.53;;
22794;SDS011;11564;50.920;11.612;2023-06-01T14:10:33;4.33;;;3.60;;
22794;SDS011;11564;50.920;11.612;2023-06-01T14:12:59;7.03;;;3.27;;
22794;SDS011;11564;50.920;11.612;2023-06-01T14:15:25;4.70;;;3.63;;
22794;SDS011;11564;50.920;11.612;2023-06-01T14:17:51;4.00;;;3.70;;
22794;SDS011;11564;50.920;11.612;2023-06-01T14:20:17;6.43;;;3.80;;
22794;SDS011;11564;50.920;11.612;2023-06-01T14:22:43;4.10;;;3.70;;
22794;SDS011;11564;50.920;11.612;2023-06-01T14:25:08;9.53;;;3.97;;
22794;SDS011;11564;50.920;11.612;2023-06-01T14:27:34;3.23;;;3.03;;
22794;SDS011;11564;50.920;11.612;2023-06-01T14:30:03;3.87;;;3.53;;
22794;SDS011;11564;50.920;11.612;2023-06-01T14:32:29;3.23;;;3.03;;
22794;SDS011;11564;50.920;11.612;2023-06-01T14:34:55;3.53;;;3.30;;
22794;SDS011;11564;50.920;11.612;2023-06-01T14:37:21;3.70;;;3.05;;
22794;SDS011;11564;50.920;11.612;2023-06-01T14:39:47;3.13;;;3.03;;
22794;SDS011;11564;50.920;11.612;2023-06-01T14:42:12;2.95;;;2.75;;
22794;SDS011;11564;50.920;11.612;2023-06-01T14:44:38;3.95;;;3.47;;
22794;SDS011;11564;50.920;11.612;2023-06-01T14:47:04;3.88;;;3.58;;
22794;SDS011;11564;50.920;11.612;2023-06-01T14:49:29;3.57;;;3.30;;
22794;SDS011;11564;50.920;11.612;2023-06-01T14:51:55;3.20;;;2.90;;
22794;SDS011;11564;50.920;11.612;2023-06-01T14:54:21;3.53;;;3.23;;
22794;SDS011;11564;50.920;11.612;2023-06-01T14:56:47;3.50;;;2.93;;
22794;SDS011;11564;50.920;11.612;2023-06-01T14:59:14;2.90;;;2.70;;
22794;SDS011;11564;50.920;11.612;2023-06-01T15:01:39;3.37;;;3.07;;
22794;SDS011;11564;50.920;11.612;2023-06-01T15:04:05;3.83;;;2.70;;
22794;SDS011;11564;50.920;11.612;2023-06-01T15:06:31;3.60;;;2.50;;
22794;SDS011;11564;50.920;11.612;2023-06-01T15:08:57;2.47;;;2.38;;
22794;SDS011;11564;50.920;11.612;2023-06-01T15:11:23;6.55;;;2.75;;
22794;SDS011;11564;50.920;11.612;2023-06-01T15:13:48;2.97;;;2.80;;
22794;SDS011;11564;50.920;11.612;2023-06-01T15:16:15;2.30;;;2.20;;